createdAt,value
2019-05-10T00:23:21.048Z,15.86
2019-05-10T00:24:25.983Z,15.95
2019-05-10T00:25:30.691Z,15.91
2019-05-10T00:26:35.966Z,15.90
2019-05-10T00:27:41.506Z,16.06
2019-05-10T00:28:48.948Z,16.11
2019-05-10T00:29:53.956Z,16.27
2019-05-10T00:30:58.895Z,16.19
2019-05-10T00:32:03.480Z,16.30
2019-05-10T00:33:08.407Z,16.14
2019-05-10T00:34:13.175Z,16.25
2019-05-10T00:35:18.357Z,16.22
2019-05-10T00:36:23.725Z,16.44
2019-05-10T00:37:29.545Z,16.54
2019-05-10T00:38:34.632Z,16.28
2019-05-10T00:39:39.594Z,16.17
2019-05-10T00:40:44.767Z,16.29
2019-05-10T00:41:50.292Z,16.21
2019-05-10T00:42:55.462Z,15.95
2019-05-10T00:44:01.307Z,16.14
2019-05-10T00:45:06.752Z,16.15
2019-05-10T00:46:11.688Z,16.26
2019-05-10T00:47:16.420Z,16.39
2019-05-10T00:48:24.760Z,16.49
2019-05-10T00:49:29.800Z,16.45
2019-05-10T00:50:34.441Z,16.37
2019-05-10T00:51:39.547Z,16.43
2019-05-10T00:52:44.776Z,16.38
2019-05-10T00:53:49.238Z,16.38
2019-05-10T00:54:54.999Z,16.52
2019-05-10T00:55:59.452Z,16.37
2019-05-10T00:57:04.338Z,16.48
2019-05-10T00:58:08.882Z,16.46
2019-05-10T00:59:13.972Z,16.59
2019-05-10T01:00:18.464Z,16.55
2019-05-10T01:01:23.982Z,16.54
2019-05-10T01:02:28.693Z,16.47
2019-05-10T01:03:34.167Z,16.59
2019-05-10T01:04:39.335Z,16.33
2019-05-10T01:05:44.582Z,16.38
2019-05-10T01:06:49.483Z,16.43
2019-05-10T01:07:55.313Z,16.50
2019-05-10T01:09:00.297Z,16.48
2019-05-10T01:10:05.498Z,16.38
2019-05-10T01:11:10.771Z,16.37
2019-05-10T01:12:16.052Z,16.36
2019-05-10T01:13:20.853Z,16.27
2019-05-10T01:14:25.738Z,16.38
2019-05-10T01:15:30.829Z,16.21
2019-05-10T01:16:36.281Z,16.27
2019-05-10T01:17:40.966Z,16.38
2019-05-10T01:18:46.200Z,16.40
2019-05-10T01:19:51.341Z,16.30
2019-05-10T01:20:56.788Z,16.10
2019-05-10T01:22:01.814Z,16.05
2019-05-10T01:23:06.720Z,16.26
2019-05-10T01:24:11.462Z,16.23
2019-05-10T01:25:16.181Z,16.11
2019-05-10T01:26:21.938Z,16.27
2019-05-10T01:27:26.940Z,16.48
2019-05-10T01:28:32.290Z,16.44
2019-05-10T01:29:37.783Z,16.35
2019-05-10T01:30:42.892Z,16.38
2019-05-10T01:31:48.309Z,16.23
2019-05-10T01:32:53.298Z,16.28
2019-05-10T01:33:58.480Z,16.23
2019-05-10T01:35:03.388Z,16.24
2019-05-10T01:36:08.303Z,16.20
2019-05-10T01:37:13.509Z,16.26
2019-05-10T01:38:19.453Z,16.19
2019-05-10T01:39:24.170Z,16.40
2019-05-10T01:40:29.364Z,16.17
2019-05-10T01:41:34.714Z,16.25
2019-05-10T01:42:39.341Z,15.97
2019-05-10T01:43:44.189Z,16.02
2019-05-10T01:44:49.958Z,16.08
2019-05-10T01:45:54.754Z,16.03
2019-05-10T01:47:00.236Z,16.13
2019-05-10T01:48:05.234Z,16.23
2019-05-10T01:49:10.462Z,15.90
2019-05-10T01:50:15.637Z,15.93
2019-05-10T01:51:20.556Z,15.83
2019-05-10T01:52:25.605Z,15.83
2019-05-10T01:53:30.718Z,15.72
2019-05-10T01:54:35.761Z,15.92
2019-05-10T01:55:51.346Z,16.14
2019-05-10T01:56:47.972Z,15.86
2019-05-10T01:57:53.148Z,16.02
2019-05-10T01:58:57.949Z,15.59
2019-05-10T02:00:03.369Z,15.81
2019-05-10T02:01:08.407Z,15.93
2019-05-10T02:02:13.550Z,16.09
2019-05-10T02:03:18.341Z,16.01
2019-05-10T02:04:24.099Z,16.04
2019-05-10T02:05:29.103Z,16.33
2019-05-10T02:06:34.063Z,16.02
2019-05-10T02:07:39.158Z,15.94
2019-05-10T02:08:44.637Z,16.10
2019-05-10T02:09:49.628Z,16.22
2019-05-10T02:10:54.273Z,16.14
2019-05-10T02:11:59.550Z,16.02
2019-05-10T02:13:04.434Z,16.15
2019-05-10T02:14:09.171Z,16.18
2019-05-10T02:15:14.156Z,16.20
2019-05-10T02:16:19.170Z,15.99
2019-05-10T02:17:24.098Z,15.83
2019-05-10T02:18:29.363Z,16.09
2019-05-10T02:19:34.647Z,16.14
2019-05-10T02:20:40.189Z,16.06
2019-05-10T02:21:45.760Z,16.01
2019-05-10T02:22:50.787Z,15.92
2019-05-10T02:23:55.669Z,15.92
2019-05-10T02:25:00.168Z,15.77
2019-05-10T02:26:09.661Z,15.86
2019-05-10T02:27:11.862Z,15.92
2019-05-10T02:28:17.055Z,16.03
2019-05-10T02:29:22.031Z,15.69
2019-05-10T02:30:26.941Z,15.86
2019-05-10T02:31:32.005Z,15.89
2019-05-10T02:32:37.448Z,15.82
2019-05-10T02:33:42.994Z,15.75
2019-05-10T02:34:48.752Z,15.77
2019-05-10T02:35:53.493Z,15.73
2019-05-10T02:36:58.729Z,15.72
2019-05-10T02:38:04.131Z,15.65
2019-05-10T02:39:10.168Z,15.61
2019-05-10T02:40:15.330Z,15.57
2019-05-10T02:41:20.465Z,15.41
2019-05-10T02:42:25.239Z,15.62
2019-05-10T02:43:30.683Z,15.56
2019-05-10T02:44:35.936Z,15.65
2019-05-10T02:45:40.783Z,15.36
2019-05-10T02:46:45.785Z,15.63
2019-05-10T02:47:50.988Z,15.62
2019-05-10T02:48:56.318Z,15.87
2019-05-10T02:50:01.742Z,15.69
2019-05-10T02:51:06.459Z,15.66
2019-05-10T02:52:11.898Z,15.58
2019-05-10T02:53:16.621Z,15.60
2019-05-10T02:54:21.824Z,15.86
2019-05-10T02:55:27.709Z,15.89
2019-05-10T02:56:35.789Z,15.54
2019-05-10T02:57:42.075Z,15.73
2019-05-10T02:58:47.338Z,15.67
2019-05-10T02:59:52.216Z,15.41
2019-05-10T03:00:58.865Z,15.66
2019-05-10T03:02:05.976Z,15.71
2019-05-10T03:03:11.995Z,15.88
2019-05-10T03:04:16.743Z,15.90
2019-05-10T03:05:21.969Z,15.64
2019-05-10T03:06:28.747Z,15.73
2019-05-10T03:07:38.330Z,15.51
2019-05-10T03:08:49.132Z,15.76
2019-05-10T03:09:54.396Z,15.95
2019-05-10T03:11:00.028Z,15.84
2019-05-10T03:12:18.810Z,15.58
2019-05-10T03:13:27.194Z,15.85
2019-05-10T03:14:35.407Z,15.81
2019-05-10T03:15:42.615Z,15.87
2019-05-10T03:16:51.297Z,15.75
2019-05-10T03:17:58.065Z,15.79
2019-05-10T03:19:04.446Z,15.81
2019-05-10T03:20:09.779Z,15.90
2019-05-10T03:21:17.905Z,15.73
2019-05-10T03:22:24.034Z,15.64
2019-05-10T03:23:28.898Z,15.84
2019-05-10T03:24:34.291Z,15.74
2019-05-10T03:25:39.464Z,15.41
2019-05-10T03:26:50.833Z,15.53
2019-05-10T03:27:53.759Z,15.47
2019-05-10T03:28:58.741Z,15.44
2019-05-10T03:30:03.661Z,15.66
2019-05-10T03:31:08.389Z,15.78
2019-05-10T03:32:13.607Z,15.46
2019-05-10T03:33:18.729Z,15.53
2019-05-10T03:34:23.865Z,15.39
2019-05-10T03:35:28.900Z,15.43
2019-05-10T03:36:34.124Z,15.53
2019-05-10T03:37:39.168Z,15.50
2019-05-10T03:38:44.770Z,15.52
2019-05-10T03:39:50.126Z,15.66
2019-05-10T03:40:55.317Z,15.38
2019-05-10T03:42:00.614Z,15.57
2019-05-10T03:43:05.788Z,15.74
2019-05-10T03:44:10.784Z,15.37
2019-05-10T03:45:16.108Z,15.53
2019-05-10T03:46:20.935Z,15.63
2019-05-10T03:47:25.840Z,15.48
2019-05-10T03:48:31.169Z,15.59
2019-05-10T03:49:36.089Z,15.77
2019-05-10T03:50:41.384Z,15.58
2019-05-10T03:51:46.928Z,15.68
2019-05-10T03:52:52.805Z,15.44
2019-05-10T03:53:57.857Z,15.31
2019-05-10T03:55:02.885Z,15.45
2019-05-10T03:56:08.375Z,15.42
2019-05-10T03:57:14.953Z,15.27
2019-05-10T03:58:20.205Z,15.25
2019-05-10T03:59:24.928Z,15.29
2019-05-10T04:00:30.135Z,15.30
2019-05-10T04:01:35.134Z,15.37
2019-05-10T04:02:39.809Z,15.52
2019-05-10T04:03:44.805Z,15.34
2019-05-10T04:04:50.099Z,15.29
2019-05-10T04:05:55.144Z,15.28
2019-05-10T04:07:00.688Z,14.99
2019-05-10T04:08:05.818Z,15.32
2019-05-10T04:09:10.742Z,15.02
2019-05-10T04:10:20.425Z,15.36
2019-05-10T04:11:23.311Z,15.41
2019-05-10T04:12:28.667Z,15.39
2019-05-10T04:13:34.223Z,15.38
2019-05-10T04:14:39.235Z,15.35
2019-05-10T04:15:44.933Z,15.26
2019-05-10T04:16:50.215Z,15.44
2019-05-10T04:17:56.004Z,15.37
2019-05-10T04:19:01.334Z,15.57
2019-05-10T04:20:06.948Z,15.38
2019-05-10T04:21:12.066Z,15.59
2019-05-10T04:22:16.930Z,15.62
2019-05-10T04:23:22.207Z,15.65
2019-05-10T04:24:27.020Z,15.68
2019-05-10T04:25:32.039Z,15.69
2019-05-10T04:26:37.220Z,15.65
2019-05-10T04:27:42.386Z,15.79
2019-05-10T04:28:47.580Z,15.69
2019-05-10T04:29:52.292Z,15.55
2019-05-10T04:30:57.556Z,15.63
2019-05-10T04:32:02.312Z,15.58
2019-05-10T04:33:07.465Z,15.64
2019-05-10T04:34:12.501Z,15.29
2019-05-10T04:35:17.637Z,15.48
2019-05-10T04:36:23.037Z,15.56
2019-05-10T04:37:28.249Z,15.72
2019-05-10T04:38:33.031Z,15.62
2019-05-10T04:39:37.928Z,15.30
2019-05-10T04:40:43.543Z,15.36
2019-05-10T04:41:48.493Z,15.42
2019-05-10T04:42:54.101Z,15.62
2019-05-10T04:43:59.035Z,15.45
2019-05-10T04:45:04.023Z,15.38
2019-05-10T04:46:08.678Z,15.53
2019-05-10T04:47:13.426Z,15.44
2019-05-10T04:48:18.622Z,15.46
2019-05-10T04:49:23.334Z,15.55
2019-05-10T04:50:28.248Z,15.39
2019-05-10T04:51:33.289Z,15.25
2019-05-10T04:52:38.283Z,15.22
2019-05-10T04:53:43.515Z,15.25
2019-05-10T04:54:49.247Z,15.23
2019-05-10T04:55:54.563Z,15.07
2019-05-10T04:57:00.366Z,15.02
2019-05-10T04:58:05.318Z,15.15
2019-05-10T04:59:10.227Z,15.35
2019-05-10T05:00:14.971Z,15.39
2019-05-10T05:01:20.270Z,15.31
2019-05-10T05:02:25.672Z,15.28
2019-05-10T05:03:31.120Z,15.22
2019-05-10T05:04:36.125Z,15.06
2019-05-10T05:05:41.265Z,15.18
2019-05-10T05:06:46.537Z,15.17
2019-05-10T05:07:52.303Z,15.22
2019-05-10T05:08:57.891Z,15.33
2019-05-10T05:10:03.090Z,15.45
2019-05-10T05:11:08.354Z,15.30
2019-05-10T05:12:13.507Z,15.19
2019-05-10T05:13:18.857Z,15.32
2019-05-10T05:14:24.598Z,15.40
2019-05-10T05:15:29.560Z,15.32
2019-05-10T05:16:34.457Z,15.30
2019-05-10T05:17:39.730Z,15.36
2019-05-10T05:18:45.049Z,15.36
2019-05-10T05:19:50.714Z,15.18
2019-05-10T05:20:55.389Z,15.38
2019-05-10T05:22:00.673Z,15.34
2019-05-10T05:23:05.677Z,15.15
2019-05-10T05:24:10.975Z,15.29
2019-05-10T05:25:16.332Z,15.23
2019-05-10T05:26:21.052Z,15.35
2019-05-10T05:27:26.489Z,15.55
2019-05-10T05:28:31.171Z,15.46
2019-05-10T05:29:37.100Z,15.53
2019-05-10T05:30:41.575Z,15.66
2019-05-10T05:31:47.055Z,15.66
2019-05-10T05:32:52.296Z,15.35
2019-05-10T05:33:59.197Z,15.42
2019-05-10T05:35:04.232Z,15.44
2019-05-10T05:36:09.688Z,15.55
2019-05-10T05:37:14.774Z,15.57
2019-05-10T05:38:20.579Z,15.48
2019-05-10T05:39:25.561Z,15.54
2019-05-10T05:40:30.505Z,15.41
2019-05-10T05:41:47.624Z,15.47
2019-05-10T05:42:42.482Z,15.53
2019-05-10T05:43:48.249Z,15.65
2019-05-10T05:44:53.338Z,15.57
2019-05-10T05:45:58.045Z,15.49
2019-05-10T05:47:04.809Z,15.57
2019-05-10T05:48:09.617Z,15.56
2019-05-10T05:49:14.918Z,15.57
2019-05-10T05:50:19.612Z,15.59
2019-05-10T05:51:24.316Z,15.41
2019-05-10T05:52:29.872Z,15.47
2019-05-10T05:53:35.938Z,15.45
2019-05-10T05:54:41.503Z,15.53
2019-05-10T05:55:46.469Z,15.36
2019-05-10T05:56:53.056Z,15.57
2019-05-10T05:57:59.140Z,15.72
2019-05-10T05:59:08.621Z,15.64
2019-05-10T06:00:12.401Z,15.63
2019-05-10T06:01:25.851Z,15.44
2019-05-10T06:02:24.347Z,15.55
2019-05-10T06:03:29.971Z,15.55
2019-05-10T06:04:35.152Z,15.53
2019-05-10T06:05:39.607Z,15.52
2019-05-10T06:06:44.551Z,15.59
2019-05-10T06:07:52.409Z,15.56
2019-05-10T06:08:59.682Z,15.70
2019-05-10T06:10:03.096Z,15.59
2019-05-10T06:11:09.154Z,15.64
2019-05-10T06:12:14.305Z,15.70
2019-05-10T06:13:23.490Z,15.69
2019-05-10T06:14:26.353Z,15.57
2019-05-10T06:15:31.650Z,15.69
2019-05-10T06:16:36.531Z,15.50
2019-05-10T06:17:41.768Z,15.69
2019-05-10T06:18:48.896Z,15.71
2019-05-10T06:19:54.020Z,15.82
2019-05-10T06:20:59.565Z,15.75
2019-05-10T06:22:06.758Z,15.64
2019-05-10T06:23:11.473Z,15.53
2019-05-10T06:24:16.408Z,15.53
2019-05-10T06:25:38.093Z,15.68
2019-05-10T06:26:28.949Z,15.66
2019-05-10T06:27:35.283Z,15.74
2019-05-10T06:28:58.569Z,15.56
2019-05-10T06:29:47.748Z,15.64
2019-05-10T06:30:53.508Z,15.68
2019-05-10T06:31:59.019Z,15.31
2019-05-10T06:33:12.699Z,15.66
2019-05-10T06:34:11.494Z,15.71
2019-05-10T06:35:19.569Z,15.43
2019-05-10T06:36:22.707Z,15.59
2019-05-10T06:37:31.235Z,15.52
2019-05-10T06:38:34.584Z,15.18
2019-05-10T06:39:39.533Z,15.42
2019-05-10T06:40:47.733Z,15.64
2019-05-10T06:41:56.158Z,15.49
2019-05-10T06:42:58.559Z,15.54
2019-05-10T06:44:03.712Z,15.57
2019-05-10T06:45:14.363Z,15.52
2019-05-10T06:46:16.048Z,15.62
2019-05-10T06:47:22.033Z,15.82
2019-05-10T06:48:33.227Z,15.78
2019-05-10T06:49:33.552Z,15.92
2019-05-10T06:50:39.023Z,15.89
2019-05-10T06:51:48.961Z,16.01
2019-05-10T06:52:52.130Z,15.90
2019-05-10T06:53:57.326Z,15.88
2019-05-10T06:55:02.845Z,15.76
2019-05-10T06:56:08.126Z,15.65
2019-05-10T06:57:17.460Z,15.55
2019-05-10T06:58:19.257Z,15.64
2019-05-10T06:59:25.046Z,15.65
2019-05-10T07:00:30.810Z,15.70
2019-05-10T07:01:38.275Z,15.55
2019-05-10T07:02:43.076Z,15.71
2019-05-10T07:03:47.998Z,15.56
2019-05-10T07:04:52.729Z,15.53
2019-05-10T07:05:57.937Z,15.50
2019-05-10T07:07:09.374Z,15.44
2019-05-10T07:08:19.555Z,15.59
2019-05-10T07:09:17.304Z,15.82
2019-05-10T07:10:25.234Z,15.95
2019-05-10T07:11:29.043Z,15.92
2019-05-10T07:12:34.111Z,15.90
2019-05-10T07:13:45.660Z,15.80
2019-05-10T07:14:46.486Z,15.81
2019-05-10T07:15:52.807Z,15.71
2019-05-10T07:17:02.516Z,15.77
2019-05-10T07:18:04.222Z,15.75
2019-05-10T07:19:09.101Z,15.74
2019-05-10T07:20:14.308Z,15.83
2019-05-10T07:21:22.386Z,15.75
2019-05-10T07:22:28.987Z,15.92
2019-05-10T07:23:39.130Z,15.70
2019-05-10T07:24:40.524Z,16.00
2019-05-10T07:25:46.767Z,16.04
2019-05-10T07:26:56.703Z,15.80
2019-05-10T07:27:58.685Z,15.94
2019-05-10T07:29:03.625Z,15.94
2019-05-10T07:30:08.856Z,15.73
2019-05-10T07:31:13.835Z,15.91
2019-05-10T07:32:21.932Z,15.98
2019-05-10T07:33:25.186Z,15.84
2019-05-10T07:34:30.415Z,15.93
2019-05-10T07:35:36.987Z,15.92
2019-05-10T07:36:42.513Z,15.80
2019-05-10T07:37:51.809Z,15.85
2019-05-10T07:38:57.476Z,15.85
2019-05-10T07:40:03.475Z,16.00
2019-05-10T07:41:08.403Z,15.97
2019-05-10T07:42:13.182Z,16.02
2019-05-10T07:43:26.526Z,15.99
2019-05-10T07:44:24.915Z,15.98
2019-05-10T07:45:30.115Z,15.68
2019-05-10T07:46:39.996Z,15.73
2019-05-10T07:47:42.047Z,15.71
2019-05-10T07:48:52.646Z,16.06
2019-05-10T07:49:53.780Z,16.04
2019-05-10T07:50:58.503Z,15.88
2019-05-10T07:52:04.470Z,15.95
2019-05-10T07:53:09.645Z,15.70
2019-05-10T07:54:15.106Z,15.69
2019-05-10T07:55:27.723Z,15.72
2019-05-10T07:56:27.070Z,16.00
2019-05-10T07:57:32.066Z,15.88
2019-05-10T07:58:38.126Z,15.86
2019-05-10T07:59:50.855Z,16.03
2019-05-10T08:00:50.631Z,16.14
2019-05-10T08:01:56.068Z,16.03
2019-05-10T08:03:12.390Z,15.90
2019-05-10T08:04:08.963Z,15.92
2019-05-10T08:05:15.495Z,16.02
2019-05-10T08:06:20.661Z,15.86
2019-05-10T08:07:29.259Z,15.91
2019-05-10T08:08:33.578Z,16.01
2019-05-10T08:09:44.730Z,16.03
2019-05-10T08:10:44.789Z,16.03
2019-05-10T08:11:54.068Z,16.09
2019-05-10T08:12:59.517Z,15.84
2019-05-10T08:14:06.294Z,15.66
2019-05-10T08:15:11.378Z,15.84
2019-05-10T08:16:21.890Z,15.86
2019-05-10T08:17:23.385Z,15.78
2019-05-10T08:18:29.315Z,15.96
2019-05-10T08:19:37.525Z,16.08
2019-05-10T08:20:53.289Z,16.22
2019-05-10T08:21:48.816Z,15.95
2019-05-10T08:22:54.889Z,16.44
2019-05-10T08:24:05.224Z,16.49
2019-05-10T08:25:06.924Z,16.53
2019-05-10T08:26:20.250Z,16.56
2019-05-10T08:27:18.585Z,16.46
2019-05-10T08:28:28.018Z,16.50
2019-05-10T08:29:32.861Z,16.76
2019-05-10T08:30:51.842Z,16.49
2019-05-10T08:31:55.183Z,16.59
2019-05-10T08:33:00.175Z,16.90
2019-05-10T08:34:02.974Z,16.66
2019-05-10T08:35:16.394Z,16.59
2019-05-10T08:36:15.031Z,16.71
2019-05-10T08:37:30.739Z,16.58
2019-05-10T08:38:26.355Z,16.66
2019-05-10T08:39:34.826Z,16.63
2019-05-10T08:40:38.296Z,16.65
2019-05-10T08:41:45.518Z,16.16
2019-05-10T08:43:03.191Z,16.17
2019-05-10T08:43:57.126Z,16.30
2019-05-10T08:45:05.462Z,16.22
2019-05-10T08:46:11.806Z,16.25
2019-05-10T08:47:24.126Z,16.29
2019-05-10T08:48:23.301Z,16.25
2019-05-10T08:49:35.412Z,16.21
2019-05-10T08:50:49.534Z,16.51
2019-05-10T08:51:47.713Z,16.27
2019-05-10T08:52:49.025Z,16.44
2019-05-10T08:53:58.126Z,16.54
2019-05-10T08:55:02.813Z,16.45
2019-05-10T08:56:07.515Z,16.39
2019-05-10T08:57:18.559Z,16.34
2019-05-10T08:58:31.029Z,16.32
2019-05-10T08:59:30.268Z,16.40
2019-05-10T09:00:49.030Z,16.29
2019-05-10T09:01:46.805Z,16.02
2019-05-10T09:02:47.441Z,16.12
2019-05-10T09:03:59.395Z,16.34
2019-05-10T09:04:58.788Z,16.31
2019-05-10T09:06:11.715Z,16.38
2019-05-10T09:07:11.976Z,16.44
2019-05-10T09:08:20.394Z,16.53
2019-05-10T09:09:23.558Z,16.28
2019-05-10T09:10:28.263Z,16.30
2019-05-10T09:11:33.764Z,16.44
2019-05-10T09:12:44.185Z,16.56
2019-05-10T09:13:46.282Z,16.45
2019-05-10T09:14:57.576Z,16.57
2019-05-10T09:15:58.940Z,16.42
2019-05-10T09:17:04.694Z,16.50
2019-05-10T09:18:09.873Z,16.34
2019-05-10T09:19:14.580Z,16.29
2019-05-10T09:20:21.880Z,16.34
2019-05-10T09:21:26.809Z,16.37
2019-05-10T09:22:33.898Z,16.24
2019-05-10T09:23:38.708Z,15.99
2019-05-10T09:24:48.542Z,16.23
2019-05-10T09:25:51.932Z,16.20
2019-05-10T09:26:57.269Z,16.23
2019-05-10T09:28:11.541Z,16.21
2019-05-10T09:29:09.160Z,16.14
2019-05-10T09:30:18.385Z,16.18
2019-05-10T09:31:25.524Z,16.25
2019-05-10T09:32:29.386Z,16.24
2019-05-10T09:33:35.732Z,16.26
2019-05-10T09:34:42.643Z,16.23
2019-05-10T09:35:52.419Z,16.08
2019-05-10T09:36:54.951Z,16.18
2019-05-10T09:38:02.056Z,16.09
2019-05-10T09:39:09.059Z,16.13
2019-05-10T09:40:15.017Z,16.18
2019-05-10T09:41:22.657Z,16.12
2019-05-10T09:42:33.224Z,16.14
2019-05-10T09:43:33.395Z,15.89
2019-05-10T09:44:38.307Z,15.88
2019-05-10T09:45:43.048Z,15.82
2019-05-10T09:46:48.344Z,15.75
2019-05-10T09:47:53.149Z,15.97
2019-05-10T09:49:05.955Z,16.07
2019-05-10T09:50:06.571Z,16.04
2019-05-10T09:51:13.813Z,16.09
2019-05-10T09:52:18.975Z,15.84
2019-05-10T09:53:29.358Z,15.96
2019-05-10T09:54:33.530Z,15.76
2019-05-10T09:55:38.520Z,15.84
2019-05-10T09:56:44.897Z,15.93
2019-05-10T09:57:50.206Z,15.88
2019-05-10T09:58:58.043Z,15.96
2019-05-10T10:00:02.525Z,16.01
2019-05-10T10:01:14.663Z,16.07
2019-05-10T10:02:16.037Z,15.85
2019-05-10T10:03:20.556Z,15.83
2019-05-10T10:04:25.457Z,15.91
2019-05-10T10:05:29.988Z,15.82
2019-05-10T10:06:36.924Z,15.99
2019-05-10T10:07:41.412Z,15.99
2019-05-10T10:08:49.285Z,16.05
2019-05-10T10:09:53.411Z,16.10
2019-05-10T10:11:09.822Z,16.15
2019-05-10T10:12:06.920Z,16.19
2019-05-10T10:13:14.118Z,16.18
2019-05-10T10:14:18.663Z,16.46
2019-05-10T10:15:32.065Z,16.61
2019-05-10T10:16:30.413Z,16.79
2019-05-10T10:17:40.330Z,17.03
2019-05-10T10:18:41.866Z,17.09
2019-05-10T10:19:48.031Z,17.26
2019-05-10T10:20:52.862Z,17.46
2019-05-10T10:21:58.019Z,17.74
2019-05-10T10:23:03.285Z,17.90
2019-05-10T10:24:15.529Z,18.08
2019-05-10T10:25:17.550Z,18.72
2019-05-10T10:26:22.469Z,19.01
2019-05-10T10:27:34.216Z,19.19
2019-05-10T10:28:37.197Z,19.22
2019-05-10T10:29:40.762Z,19.20
2019-05-10T10:30:50.465Z,19.17
2019-05-10T10:31:55.789Z,19.14
2019-05-10T10:32:59.089Z,19.09
2019-05-10T10:34:03.588Z,19.18
2019-05-10T10:35:13.330Z,19.20
2019-05-10T10:36:15.406Z,19.14
2019-05-10T10:37:25.680Z,18.91
2019-05-10T10:38:30.945Z,19.46
2019-05-10T10:39:33.919Z,19.29
2019-05-10T10:40:44.201Z,19.62
2019-05-10T10:41:48.066Z,19.98
2019-05-10T10:42:52.643Z,19.90
2019-05-10T10:43:58.486Z,19.79
2019-05-10T10:45:03.302Z,19.15
2019-05-10T10:46:12.480Z,19.13
2019-05-10T10:47:14.851Z,18.57
2019-05-10T10:48:20.293Z,18.61
2019-05-10T10:49:29.270Z,18.70
2019-05-10T10:50:31.992Z,18.54
2019-05-10T10:51:37.928Z,18.32
2019-05-10T10:52:43.012Z,18.19
2019-05-10T10:53:47.595Z,18.09
2019-05-10T10:54:52.547Z,17.88
2019-05-10T10:56:03.601Z,17.61
2019-05-10T10:57:04.726Z,17.72
2019-05-10T10:58:09.987Z,17.71
2019-05-10T10:59:15.462Z,17.59
2019-05-10T11:00:33.247Z,17.47
2019-05-10T11:01:49.089Z,17.38
2019-05-10T11:02:46.935Z,17.16
2019-05-10T11:03:52.101Z,17.25
2019-05-10T11:04:57.149Z,17.00
2019-05-10T11:06:02.664Z,16.96
2019-05-10T11:07:10.803Z,16.84
2019-05-10T11:08:14.669Z,16.75
2019-05-10T11:09:20.723Z,16.79
2019-05-10T11:10:31.315Z,16.85
2019-05-10T11:11:39.176Z,16.91
2019-05-10T11:12:43.481Z,16.79
2019-05-10T11:13:57.496Z,17.04
2019-05-10T11:14:55.414Z,17.11
2019-05-10T11:16:09.658Z,17.07
2019-05-10T11:17:06.503Z,16.90
2019-05-10T11:18:11.564Z,17.16
2019-05-10T11:19:16.779Z,17.32
2019-05-10T11:20:21.655Z,17.42
2019-05-10T11:21:28.815Z,17.48
2019-05-10T11:22:33.579Z,17.54
2019-05-10T11:23:41.449Z,17.70
2019-05-10T11:24:45.259Z,17.84
2019-05-10T11:25:56.063Z,17.80
2019-05-10T11:26:57.320Z,17.60
2019-05-10T11:28:02.489Z,18.07
2019-05-10T11:29:06.996Z,18.23
2019-05-10T11:30:12.638Z,18.14
2019-05-10T11:31:17.664Z,18.41
2019-05-10T11:32:23.131Z,18.52
2019-05-10T11:33:30.799Z,18.90
2019-05-10T11:34:37.295Z,18.88
2019-05-10T11:35:41.712Z,18.75
2019-05-10T11:36:48.308Z,18.60
2019-05-10T11:37:53.590Z,18.55
2019-05-10T11:39:01.347Z,18.60
2019-05-10T11:40:05.932Z,18.74
2019-05-10T11:41:13.486Z,18.67
2019-05-10T11:42:18.346Z,18.57
2019-05-10T11:43:26.923Z,18.44
2019-05-10T11:44:31.678Z,18.25
2019-05-10T11:45:36.887Z,18.37
2019-05-10T11:46:41.733Z,18.27
2019-05-10T11:47:48.065Z,18.26
2019-05-10T11:48:53.335Z,18.35
2019-05-10T11:49:58.546Z,18.34
2019-05-10T11:51:05.765Z,18.32
2019-05-10T11:52:13.106Z,18.42
2019-05-10T11:53:17.616Z,18.39
2019-05-10T11:54:22.764Z,18.23
2019-05-10T11:55:27.480Z,18.14
2019-05-10T11:56:32.706Z,18.20
2019-05-10T11:57:43.662Z,18.18
2019-05-10T11:58:52.502Z,18.15
2019-05-10T11:59:51.944Z,18.24
2019-05-10T12:01:00.335Z,18.46
2019-05-10T12:02:08.426Z,18.62
2019-05-10T12:03:14.991Z,18.71
2019-05-10T12:04:24.052Z,18.92
2019-05-10T12:05:26.743Z,19.04
2019-05-10T12:06:31.938Z,19.18
2019-05-10T12:07:44.980Z,19.21
2019-05-10T12:08:44.683Z,19.25
2019-05-10T12:09:53.271Z,19.51
2019-05-10T12:11:08.395Z,19.66
2019-05-10T12:12:03.938Z,19.67
2019-05-10T12:13:18.536Z,19.53
2019-05-10T12:14:16.464Z,19.32
2019-05-10T12:15:25.284Z,19.47
2019-05-10T12:16:27.595Z,19.55
2019-05-10T12:17:32.908Z,19.91
2019-05-10T12:18:46.696Z,20.19
2019-05-10T12:19:50.495Z,20.29
2019-05-10T12:21:08.672Z,20.40
2019-05-10T12:22:03.562Z,20.81
2019-05-10T12:23:13.282Z,20.96
2019-05-10T12:24:31.378Z,20.60
2019-05-10T12:25:37.714Z,21.07
2019-05-10T12:27:43.972Z,22.03
2019-05-10T12:28:40.943Z,22.25
2019-05-10T12:29:46.586Z,22.22
2019-05-10T12:30:52.783Z,21.99
2019-05-10T12:31:57.660Z,21.98
2019-05-10T12:33:08.923Z,21.83
2019-05-10T12:34:13.973Z,21.87
2019-05-10T12:35:15.529Z,21.88
2019-05-10T12:36:26.010Z,21.81
2019-05-10T12:37:27.317Z,21.77
2019-05-10T12:38:35.703Z,21.46
2019-05-10T12:39:39.606Z,21.71
2019-05-10T12:40:45.869Z,21.62
2019-05-10T12:41:53.029Z,21.16
2019-05-10T12:43:00.571Z,21.23
2019-05-10T12:44:07.480Z,20.84
2019-05-10T12:45:11.592Z,20.77
2019-05-10T12:46:17.190Z,20.51
2019-05-10T12:47:22.351Z,20.28
2019-05-10T12:48:27.665Z,20.42
2019-05-10T12:49:32.578Z,20.43
2019-05-10T12:50:37.294Z,20.92
2019-05-10T12:51:43.210Z,20.67
2019-05-10T12:52:53.117Z,20.85
2019-05-10T12:53:54.670Z,20.84
2019-05-10T12:54:59.648Z,20.79
2019-05-10T12:56:04.579Z,20.90
2019-05-10T12:57:09.068Z,20.80
2019-05-10T12:58:14.302Z,20.41
2019-05-10T12:59:19.591Z,20.25
2019-05-10T13:00:25.498Z,20.34
2019-05-10T13:01:31.976Z,20.47
2019-05-10T13:02:38.142Z,20.72
2019-05-10T13:03:43.141Z,20.67
2019-05-10T13:04:52.452Z,20.58
2019-05-10T13:05:54.652Z,20.74
2019-05-10T13:07:00.474Z,20.43
2019-05-10T13:08:05.512Z,20.19
2019-05-10T13:09:10.720Z,20.03
2019-05-10T13:10:16.044Z,19.96
2019-05-10T13:11:25.309Z,20.37
2019-05-10T13:12:27.701Z,20.54
2019-05-10T13:13:32.968Z,20.66
2019-05-10T13:14:46.495Z,21.09
2019-05-10T13:15:48.466Z,20.98
2019-05-10T13:16:53.161Z,21.06
2019-05-10T13:17:58.674Z,21.38
2019-05-10T13:19:03.613Z,21.34
2019-05-10T13:20:10.389Z,21.05
2019-05-10T13:21:20.848Z,20.94
2019-05-10T13:22:22.168Z,21.01
2019-05-10T13:23:27.601Z,20.91
2019-05-10T13:24:33.169Z,21.17
2019-05-10T13:25:37.712Z,21.23
2019-05-10T13:26:43.840Z,21.25
2019-05-10T13:27:49.116Z,21.12
2019-05-10T13:28:54.854Z,20.90
2019-05-10T13:30:00.182Z,20.52
2019-05-10T13:31:07.132Z,20.92
2019-05-10T13:32:14.807Z,20.94
2019-05-10T13:33:28.568Z,21.30
2019-05-10T13:34:25.077Z,21.33
2019-05-10T13:35:30.296Z,21.52
2019-05-10T13:36:37.092Z,21.60
2019-05-10T13:37:42.354Z,21.33
2019-05-10T13:38:49.271Z,21.63
2019-05-10T13:39:58.128Z,21.11
2019-05-10T13:41:00.566Z,20.88
2019-05-10T13:42:09.167Z,21.28
2019-05-10T13:43:17.420Z,21.50
2019-05-10T13:44:18.694Z,21.21
2019-05-10T13:45:23.494Z,20.83
2019-05-10T13:46:28.719Z,20.78
2019-05-10T13:47:34.198Z,20.60
2019-05-10T13:48:39.132Z,20.84
2019-05-10T13:49:48.273Z,20.96
2019-05-10T13:50:51.284Z,21.17
2019-05-10T13:51:56.252Z,21.13
2019-05-10T13:53:01.123Z,20.94
2019-05-10T13:54:05.854Z,20.96
2019-05-10T13:55:10.773Z,21.08
2019-05-10T13:56:15.476Z,20.80
2019-05-10T13:57:20.954Z,20.88
2019-05-10T13:58:26.015Z,21.22
2019-05-10T13:59:30.926Z,21.12
2019-05-10T14:00:36.057Z,21.14
2019-05-10T14:01:44.130Z,21.21
2019-05-10T14:02:51.161Z,21.34
2019-05-10T14:04:01.434Z,21.61
2019-05-10T14:05:03.939Z,21.69
2019-05-10T14:06:09.224Z,21.57
2019-05-10T14:07:14.615Z,21.80
2019-05-10T14:08:20.085Z,21.94
2019-05-10T14:09:25.106Z,21.94
2019-05-10T14:10:30.392Z,21.82
2019-05-10T14:11:40.414Z,21.86
2019-05-10T14:12:41.848Z,21.94
2019-05-10T14:13:49.931Z,21.76
2019-05-10T14:15:01.929Z,21.71
2019-05-10T14:16:02.409Z,21.37
2019-05-10T14:17:07.583Z,21.22
2019-05-10T14:18:12.326Z,21.02
2019-05-10T14:19:22.743Z,21.00
2019-05-10T14:20:25.749Z,20.84
2019-05-10T14:21:31.211Z,21.28
2019-05-10T14:22:35.957Z,21.42
2019-05-10T14:23:40.857Z,21.36
2019-05-10T14:24:46.868Z,21.19
2019-05-10T14:25:52.580Z,21.31
2019-05-10T14:26:59.389Z,21.37
2019-05-10T14:28:09.515Z,21.30
2019-05-10T14:29:11.333Z,21.22
2019-05-10T14:30:16.762Z,21.48